sensor_id;sensor_type;location;lat;lon;timestamp;P1;durP1;ratioP1;P2;durP2;ratioP2
30966;SDS011;17649;51.836;8.330;2023-04-05T00:01:36;18.65;;;9.63;;
30966;SDS011;17649;51.836;8.330;2023-04-05T00:04:37;20.05;;;9.30;;
30966;SDS011;17649;51.836;8.330;2023-04-05T00:07:37;15.80;;;9.38;;
30966;SDS011;17649;51.836;8.330;2023-04-05T00:10:38;15.40;;;8.93;;
30966;SDS011;17649;51.836;8.330;2023-04-05T00:13:38;14.77;;;9.15;;
30966;SDS011;17649;51.836;8.330;2023-04-05T00:16:39;16.90;;;9.60;;
30966;SDS011;17649;51.836;8.330;2023-04-05T00:19:40;15.50;;;9.35;;
30966;SDS011;17649;51.836;8.330;2023-04-05T00:22:41;19.25;;;8.60;;
30966;SDS011;17649;51.836;8.330;2023-04-05T00:25:43;19.48;;;9.23;;
30966;SDS011;17649;51.836;8.330;2023-04-05T00:28:43;19.20;;;8.15;;
30966;SDS011;17649;51.836;8.330;2023-04-05T00:31:45;16.00;;;8.70;;
30966;SDS011;17649;51.836;8.330;2023-04-05T00:34:45;12.93;;;8.18;;
30966;SDS011;17649;51.836;8.330;2023-04-05T00:37:46;18.35;;;8.77;;
30966;SDS011;17649;51.836;8.330;2023-04-05T00:40:46;18.65;;;9.52;;
30966;SDS011;17649;51.836;8.330;2023-04-05T00:43:47;19.52;;;9.55;;
30966;SDS011;17649;51.836;8.330;2023-04-05T00:46:47;22.55;;;9.65;;
30966;SDS011;17649;51.836;8.330;2023-04-05T00:49:47;17.80;;;8.57;;
30966;SDS011;17649;51.836;8.330;2023-04-05T00:52:48;14.93;;;9.07;;
30966;SDS011;17649;51.836;8.330;2023-04-05T00:55:49;19.73;;;9.18;;
30966;SDS011;17649;51.836;8.330;2023-04-05T00:58:53;21.30;;;9.15;;
30966;SDS011;17649;51.836;8.330;2023-04-05T01:02:01;16.67;;;8.63;;
30966;SDS011;17649;51.836;8.330;2023-04-05T01:05:34;14.25;;;8.75;;
30966;SDS011;17649;51.836;8.330;2023-04-05T01:11:54;17.27;;;9.18;;
30966;SDS011;17649;51.836;8.330;2023-04-05T01:14:58;17.90;;;8.52;;
30966;SDS011;17649;51.836;8.330;2023-04-05T01:17:59;14.85;;;8.27;;
30966;SDS011;17649;51.836;8.330;2023-04-05T01:28:27;12.45;;;7.47;;
30966;SDS011;17649;51.836;8.330;2023-04-05T01:31:49;11.80;;;7.50;;
30966;SDS011;17649;51.836;8.330;2023-04-05T01:34:59;14.00;;;8.30;;
30966;SDS011;17649;51.836;8.330;2023-04-05T01:38:08;16.38;;;8.00;;
30966;SDS011;17649;51.836;8.330;2023-04-05T01:41:13;11.93;;;7.28;;
30966;SDS011;17649;51.836;8.330;2023-04-05T01:44:14;13.15;;;7.60;;
30966;SDS011;17649;51.836;8.330;2023-04-05T01:47:15;13.85;;;7.50;;
30966;SDS011;17649;51.836;8.330;2023-04-05T01:50:16;10.90;;;6.63;;
30966;SDS011;17649;51.836;8.330;2023-04-05T01:53:17;25.90;;;8.02;;
30966;SDS011;17649;51.836;8.330;2023-04-05T01:56:18;20.05;;;9.43;;
30966;SDS011;17649;51.836;8.330;2023-04-05T01:59:18;14.48;;;8.68;;
30966;SDS011;17649;51.836;8.330;2023-04-05T02:02:18;17.63;;;8.77;;
30966;SDS011;17649;51.836;8.330;2023-04-05T02:05:19;20.95;;;9.38;;
30966;SDS011;17649;51.836;8.330;2023-04-05T02:08:19;14.73;;;8.32;;
30966;SDS011;17649;51.836;8.330;2023-04-05T02:11:19;16.55;;;9.15;;
30966;SDS011;17649;51.836;8.330;2023-04-05T02:14:20;20.70;;;8.27;;
30966;SDS011;17649;51.836;8.330;2023-04-05T02:17:20;16.67;;;8.55;;
30966;SDS011;17649;51.836;8.330;2023-04-05T02:20:21;16.02;;;8.75;;
30966;SDS011;17649;51.836;8.330;2023-04-05T02:23:21;15.45;;;8.40;;
30966;SDS011;17649;51.836;8.330;2023-04-05T02:26:21;17.77;;;8.50;;
30966;SDS011;17649;51.836;8.330;2023-04-05T02:29:22;15.35;;;8.43;;
30966;SDS011;17649;51.836;8.330;2023-04-05T02:32:23;16.27;;;7.53;;
30966;SDS011;17649;51.836;8.330;2023-04-05T02:35:24;17.73;;;8.73;;
30966;SDS011;17649;51.836;8.330;2023-04-05T02:38:24;14.50;;;9.10;;
30966;SDS011;17649;51.836;8.330;2023-04-05T02:41:24;13.75;;;8.75;;
30966;SDS011;17649;51.836;8.330;2023-04-05T02:44:25;16.10;;;8.75;;
30966;SDS011;17649;51.836;8.330;2023-04-05T02:47:25;15.55;;;8.48;;
30966;SDS011;17649;51.836;8.330;2023-04-05T02:50:25;15.43;;;8.43;;
30966;SDS011;17649;51.836;8.330;2023-04-05T02:53:26;21.65;;;8.93;;
30966;SDS011;17649;51.836;8.330;2023-04-05T02:56:26;13.15;;;8.50;;
30966;SDS011;17649;51.836;8.330;2023-04-05T02:59:28;16.37;;;9.33;;
30966;SDS011;17649;51.836;8.330;2023-04-05T03:02:28;13.57;;;7.40;;
30966;SDS011;17649;51.836;8.330;2023-04-05T03:05:28;13.98;;;8.32;;
30966;SDS011;17649;51.836;8.330;2023-04-05T03:08:29;17.80;;;8.77;;
30966;SDS011;17649;51.836;8.330;2023-04-05T03:14:32;19.23;;;9.50;;
30966;SDS011;17649;51.836;8.330;2023-04-05T03:17:33;15.80;;;7.05;;
30966;SDS011;17649;51.836;8.330;2023-04-05T03:20:33;16.50;;;8.40;;
30966;SDS011;17649;51.836;8.330;2023-04-05T03:23:39;18.33;;;8.55;;
30966;SDS011;17649;51.836;8.330;2023-04-05T03:26:39;15.55;;;9.02;;
30966;SDS011;17649;51.836;8.330;2023-04-05T03:29:40;17.15;;;9.90;;
30966;SDS011;17649;51.836;8.330;2023-04-05T03:32:41;17.10;;;9.02;;
30966;SDS011;17649;51.836;8.330;2023-04-05T03:35:42;17.38;;;8.10;;
30966;SDS011;17649;51.836;8.330;2023-04-05T03:38:43;15.52;;;7.70;;
30966;SDS011;17649;51.836;8.330;2023-04-05T03:41:49;16.25;;;8.35;;
30966;SDS011;17649;51.836;8.330;2023-04-05T03:44:51;20.10;;;7.95;;
30966;SDS011;17649;51.836;8.330;2023-04-05T03:47:52;19.00;;;8.90;;
30966;SDS011;17649;51.836;8.330;2023-04-05T03:50:53;16.53;;;8.23;;
30966;SDS011;17649;51.836;8.330;2023-04-05T03:53:55;8.67;;;5.93;;
30966;SDS011;17649;51.836;8.330;2023-04-05T03:56:55;17.92;;;7.97;;
30966;SDS011;17649;51.836;8.330;2023-04-05T03:59:56;17.05;;;8.25;;
30966;SDS011;17649;51.836;8.330;2023-04-05T04:02:57;15.90;;;8.10;;
30966;SDS011;17649;51.836;8.330;2023-04-05T04:05:57;14.85;;;8.07;;
30966;SDS011;17649;51.836;8.330;2023-04-05T04:08:58;14.02;;;8.80;;
30966;SDS011;17649;51.836;8.330;2023-04-05T04:11:58;10.77;;;6.63;;
30966;SDS011;17649;51.836;8.330;2023-04-05T04:14:59;15.00;;;7.93;;
30966;SDS011;17649;51.836;8.330;2023-04-05T04:17:59;24.45;;;8.85;;
30966;SDS011;17649;51.836;8.330;2023-04-05T04:21:02;22.98;;;8.02;;
30966;SDS011;17649;51.836;8.330;2023-04-05T04:24:06;24.40;;;8.45;;
30966;SDS011;17649;51.836;8.330;2023-04-05T04:27:06;15.50;;;8.65;;
30966;SDS011;17649;51.836;8.330;2023-04-05T04:30:10;13.65;;;7.13;;
30966;SDS011;17649;51.836;8.330;2023-04-05T04:33:12;15.80;;;8.32;;
30966;SDS011;17649;51.836;8.330;2023-04-05T04:36:12;26.83;;;9.77;;
30966;SDS011;17649;51.836;8.330;2023-04-05T04:39:13;13.32;;;7.70;;
30966;SDS011;17649;51.836;8.330;2023-04-05T04:42:16;20.85;;;8.43;;
30966;SDS011;17649;51.836;8.330;2023-04-05T04:45:18;15.45;;;8.43;;
30966;SDS011;17649;51.836;8.330;2023-04-05T04:48:19;18.15;;;8.07;;
30966;SDS011;17649;51.836;8.330;2023-04-05T04:51:20;19.10;;;7.75;;
30966;SDS011;17649;51.836;8.330;2023-04-05T04:54:20;15.85;;;7.38;;
30966;SDS011;17649;51.836;8.330;2023-04-05T04:57:21;17.38;;;8.48;;
30966;SDS011;17649;51.836;8.330;2023-04-05T05:00:22;21.50;;;7.95;;
30966;SDS011;17649;51.836;8.330;2023-04-05T05:03:23;18.57;;;9.20;;
30966;SDS011;17649;51.836;8.330;2023-04-05T05:06:23;17.38;;;8.52;;
30966;SDS011;17649;51.836;8.330;2023-04-05T05:09:24;15.57;;;8.02;;
30966;SDS011;17649;51.836;8.330;2023-04-05T05:12:24;14.02;;;8.35;;
30966;SDS011;17649;51.836;8.330;2023-04-05T05:15:25;11.67;;;7.30;;
30966;SDS011;17649;51.836;8.330;2023-04-05T05:18:26;33.75;;;9.63;;
30966;SDS011;17649;51.836;8.330;2023-04-05T05:21:27;19.95;;;8.93;;
30966;SDS011;17649;51.836;8.330;2023-04-05T05:24:27;21.70;;;8.73;;
30966;SDS011;17649;51.836;8.330;2023-04-05T05:27:27;26.20;;;8.60;;
30966;SDS011;17649;51.836;8.330;2023-04-05T05:30:28;16.92;;;8.23;;
30966;SDS011;17649;51.836;8.330;2023-04-05T05:33:28;22.40;;;8.35;;
30966;SDS011;17649;51.836;8.330;2023-04-05T05:36:29;15.20;;;8.15;;
30966;SDS011;17649;51.836;8.330;2023-04-05T05:39:30;13.45;;;8.32;;
30966;SDS011;17649;51.836;8.330;2023-04-05T05:42:32;15.48;;;7.97;;
30966;SDS011;17649;51.836;8.330;2023-04-05T05:45:33;15.45;;;7.22;;
30966;SDS011;17649;51.836;8.330;2023-04-05T05:48:33;16.92;;;8.23;;
30966;SDS011;17649;51.836;8.330;2023-04-05T05:51:33;12.43;;;7.15;;
30966;SDS011;17649;51.836;8.330;2023-04-05T05:54:34;16.67;;;7.32;;
30966;SDS011;17649;51.836;8.330;2023-04-05T05:57:35;12.55;;;6.93;;
30966;SDS011;17649;51.836;8.330;2023-04-05T06:00:37;14.18;;;7.30;;
30966;SDS011;17649;51.836;8.330;2023-04-05T06:03:38;16.10;;;7.03;;
30966;SDS011;17649;51.836;8.330;2023-04-05T06:06:38;16.40;;;7.93;;
30966;SDS011;17649;51.836;8.330;2023-04-05T06:09:41;11.45;;;6.68;;
30966;SDS011;17649;51.836;8.330;2023-04-05T06:12:44;14.07;;;8.23;;
30966;SDS011;17649;51.836;8.330;2023-04-05T06:15:46;21.08;;;8.82;;
30966;SDS011;17649;51.836;8.330;2023-04-05T06:18:48;18.65;;;8.48;;
30966;SDS011;17649;51.836;8.330;2023-04-05T06:21:50;17.27;;;8.52;;
30966;SDS011;17649;51.836;8.330;2023-04-05T06:24:50;11.52;;;7.22;;
30966;SDS011;17649;51.836;8.330;2023-04-05T06:27:51;17.27;;;8.75;;
30966;SDS011;17649;51.836;8.330;2023-04-05T06:30:51;17.58;;;8.35;;
30966;SDS011;17649;51.836;8.330;2023-04-05T06:33:52;11.57;;;7.57;;
30966;SDS011;17649;51.836;8.330;2023-04-05T06:36:52;13.82;;;6.95;;
30966;SDS011;17649;51.836;8.330;2023-04-05T06:39:54;20.63;;;7.85;;
30966;SDS011;17649;51.836;8.330;2023-04-05T06:42:55;15.43;;;7.82;;
30966;SDS011;17649;51.836;8.330;2023-04-05T06:45:55;11.25;;;7.18;;
30966;SDS011;17649;51.836;8.330;2023-04-05T06:48:57;12.05;;;7.75;;
30966;SDS011;17649;51.836;8.330;2023-04-05T06:51:58;14.98;;;7.60;;
30966;SDS011;17649;51.836;8.330;2023-04-05T06:54:59;14.02;;;7.82;;
30966;SDS011;17649;51.836;8.330;2023-04-05T06:58:00;15.33;;;8.47;;
30966;SDS011;17649;51.836;8.330;2023-04-05T07:01:00;27.20;;;8.27;;
30966;SDS011;17649;51.836;8.330;2023-04-05T07:04:01;14.40;;;7.82;;
30966;SDS011;17649;51.836;8.330;2023-04-05T07:07:02;17.73;;;8.25;;
30966;SDS011;17649;51.836;8.330;2023-04-05T07:10:03;15.57;;;8.25;;
30966;SDS011;17649;51.836;8.330;2023-04-05T07:13:04;16.85;;;9.13;;
30966;SDS011;17649;51.836;8.330;2023-04-05T07:16:04;16.90;;;8.43;;
30966;SDS011;17649;51.836;8.330;2023-04-05T07:19:05;19.67;;;8.15;;
30966;SDS011;17649;51.836;8.330;2023-04-05T07:34:47;12.23;;;7.88;;
30966;SDS011;17649;51.836;8.330;2023-04-05T07:37:48;13.98;;;8.70;;
30966;SDS011;17649;51.836;8.330;2023-04-05T07:40:48;13.05;;;7.38;;
30966;SDS011;17649;51.836;8.330;2023-04-05T07:43:49;14.35;;;8.13;;
30966;SDS011;17649;51.836;8.330;2023-04-05T07:46:50;19.02;;;7.32;;
30966;SDS011;17649;51.836;8.330;2023-04-05T07:49:50;23.65;;;7.15;;
30966;SDS011;17649;51.836;8.330;2023-04-05T07:52:51;17.50;;;7.18;;
30966;SDS011;17649;51.836;8.330;2023-04-05T07:55:51;11.52;;;7.05;;
30966;SDS011;17649;51.836;8.330;2023-04-05T07:58:52;12.38;;;7.47;;
30966;SDS011;17649;51.836;8.330;2023-04-05T08:01:54;12.98;;;7.85;;
30966;SDS011;17649;51.836;8.330;2023-04-05T08:04:55;12.00;;;7.07;;
30966;SDS011;17649;51.836;8.330;2023-04-05T08:07:56;15.52;;;7.32;;
30966;SDS011;17649;51.836;8.330;2023-04-05T08:10:57;11.00;;;7.25;;
30966;SDS011;17649;51.836;8.330;2023-04-05T08:13:57;13.55;;;8.02;;
30966;SDS011;17649;51.836;8.330;2023-04-05T08:16:58;17.33;;;8.15;;
30966;SDS011;17649;51.836;8.330;2023-04-05T08:19:58;12.52;;;7.72;;
30966;SDS011;17649;51.836;8.330;2023-04-05T09:04:24;9.77;;;6.47;;
30966;SDS011;17649;51.836;8.330;2023-04-05T09:07:34;16.45;;;6.78;;
30966;SDS011;17649;51.836;8.330;2023-04-05T09:10:38;14.52;;;6.53;;
30966;SDS011;17649;51.836;8.330;2023-04-05T09:13:39;9.15;;;5.82;;
30966;SDS011;17649;51.836;8.330;2023-04-05T09:20:24;21.75;;;7.25;;
30966;SDS011;17649;51.836;8.330;2023-04-05T09:23:28;12.98;;;6.15;;
30966;SDS011;17649;51.836;8.330;2023-04-05T09:26:31;16.45;;;6.50;;
30966;SDS011;17649;51.836;8.330;2023-04-05T09:29:42;15.73;;;6.35;;
30966;SDS011;17649;51.836;8.330;2023-04-05T09:32:45;11.75;;;6.72;;
30966;SDS011;17649;51.836;8.330;2023-04-05T09:35:52;11.18;;;6.15;;
30966;SDS011;17649;51.836;8.330;2023-04-05T09:39:07;12.20;;;6.45;;
30966;SDS011;17649;51.836;8.330;2023-04-05T09:42:43;11.10;;;6.40;;
30966;SDS011;17649;51.836;8.330;2023-04-05T09:45:47;12.60;;;5.97;;
30966;SDS011;17649;51.836;8.330;2023-04-05T09:48:48;13.65;;;6.07;;
30966;SDS011;17649;51.836;8.330;2023-04-05T09:51:50;16.27;;;6.20;;
30966;SDS011;17649;51.836;8.330;2023-04-05T09:54:52;12.07;;;6.72;;
30966;SDS011;17649;51.836;8.330;2023-04-05T09:57:56;10.35;;;6.40;;
30966;SDS011;17649;51.836;8.330;2023-04-05T10:00:57;11.30;;;6.55;;
30966;SDS011;17649;51.836;8.330;2023-04-05T10:03:57;16.88;;;6.05;;
30966;SDS011;17649;51.836;8.330;2023-04-05T10:06:58;10.73;;;6.68;;
30966;SDS011;17649;51.836;8.330;2023-04-05T10:09:59;17.15;;;7.05;;
30966;SDS011;17649;51.836;8.330;2023-04-05T10:13:00;13.53;;;6.50;;
30966;SDS011;17649;51.836;8.330;2023-04-05T10:16:04;14.70;;;6.93;;
30966;SDS011;17649;51.836;8.330;2023-04-05T10:19:16;15.38;;;6.45;;
30966;SDS011;17649;51.836;8.330;2023-04-05T10:22:29;14.23;;;6.75;;
30966;SDS011;17649;51.836;8.330;2023-04-05T10:28:51;14.30;;;6.43;;
30966;SDS011;17649;51.836;8.330;2023-04-05T10:31:59;13.05;;;6.50;;
30966;SDS011;17649;51.836;8.330;2023-04-05T10:35:12;10.07;;;6.03;;
30966;SDS011;17649;51.836;8.330;2023-04-05T10:38:20;10.32;;;6.10;;
30966;SDS011;17649;51.836;8.330;2023-04-05T10:41:25;9.82;;;6.78;;
30966;SDS011;17649;51.836;8.330;2023-04-05T10:44:25;12.32;;;6.70;;
30966;SDS011;17649;51.836;8.330;2023-04-05T10:47:27;13.20;;;6.93;;
30966;SDS011;17649;51.836;8.330;2023-04-05T10:50:31;11.48;;;7.57;;
30966;SDS011;17649;51.836;8.330;2023-04-05T10:53:31;12.63;;;6.38;;
30966;SDS011;17649;51.836;8.330;2023-04-05T10:56:33;11.38;;;6.90;;
30966;SDS011;17649;51.836;8.330;2023-04-05T10:59:33;12.63;;;6.68;;
30966;SDS011;17649;51.836;8.330;2023-04-05T11:02:35;10.30;;;7.10;;
30966;SDS011;17649;51.836;8.330;2023-04-05T11:05:36;10.43;;;6.72;;
30966;SDS011;17649;51.836;8.330;2023-04-05T11:08:40;15.05;;;6.35;;
30966;SDS011;17649;51.836;8.330;2023-04-05T11:11:42;11.25;;;6.35;;
30966;SDS011;17649;51.836;8.330;2023-04-05T11:14:44;11.20;;;6.05;;
30966;SDS011;17649;51.836;8.330;2023-04-05T11:17:55;10.77;;;6.55;;
30966;SDS011;17649;51.836;8.330;2023-04-05T11:21:05;20.60;;;6.53;;
30966;SDS011;17649;51.836;8.330;2023-04-05T11:24:07;11.40;;;7.00;;
30966;SDS011;17649;51.836;8.330;2023-04-05T11:27:11;13.45;;;6.97;;
30966;SDS011;17649;51.836;8.330;2023-04-05T11:34:17;14.27;;;7.57;;
30966;SDS011;17649;51.836;8.330;2023-04-05T11:41:23;15.30;;;5.90;;
30966;SDS011;17649;51.836;8.330;2023-04-05T11:44:26;11.98;;;5.68;;
30966;SDS011;17649;51.836;8.330;2023-04-05T11:47:38;13.30;;;4.90;;
30966;SDS011;17649;51.836;8.330;2023-04-05T11:50:40;7.53;;;5.18;;
30966;SDS011;17649;51.836;8.330;2023-04-05T11:53:47;10.93;;;6.40;;
30966;SDS011;17649;51.836;8.330;2023-04-05T11:56:50;10.63;;;6.22;;
30966;SDS011;17649;51.836;8.330;2023-04-05T11:59:51;10.50;;;5.85;;
30966;SDS011;17649;51.836;8.330;2023-04-05T12:02:55;8.33;;;5.97;;
30966;SDS011;17649;51.836;8.330;2023-04-05T12:05:57;11.50;;;6.35;;
30966;SDS011;17649;51.836;8.330;2023-04-05T12:08:58;9.27;;;5.43;;
30966;SDS011;17649;51.836;8.330;2023-04-05T12:11:58;10.63;;;5.60;;
30966;SDS011;17649;51.836;8.330;2023-04-05T12:14:59;8.10;;;5.75;;
30966;SDS011;17649;51.836;8.330;2023-04-05T12:18:01;9.50;;;6.07;;
30966;SDS011;17649;51.836;8.330;2023-04-05T12:21:02;7.88;;;6.00;;
30966;SDS011;17649;51.836;8.330;2023-04-05T12:24:04;8.60;;;5.38;;
30966;SDS011;17649;51.836;8.330;2023-04-05T12:27:05;6.95;;;5.80;;
30966;SDS011;17649;51.836;8.330;2023-04-05T12:30:06;9.50;;;6.00;;
30966;SDS011;17649;51.836;8.330;2023-04-05T12:33:24;7.75;;;4.63;;
30966;SDS011;17649;51.836;8.330;2023-04-05T12:36:29;9.32;;;5.32;;
30966;SDS011;17649;51.836;8.330;2023-04-05T12:39:32;9.05;;;5.85;;
30966;SDS011;17649;51.836;8.330;2023-04-05T12:42:34;9.43;;;5.57;;
30966;SDS011;17649;51.836;8.330;2023-04-05T12:45:36;10.75;;;6.57;;
30966;SDS011;17649;51.836;8.330;2023-04-05T12:48:40;7.30;;;5.18;;
30966;SDS011;17649;51.836;8.330;2023-04-05T12:51:41;7.93;;;4.90;;
30966;SDS011;17649;51.836;8.330;2023-04-05T12:54:52;5.70;;;4.28;;
30966;SDS011;17649;51.836;8.330;2023-04-05T12:57:55;8.65;;;5.47;;
30966;SDS011;17649;51.836;8.330;2023-04-05T13:00:58;6.22;;;4.75;;
30966;SDS011;17649;51.836;8.330;2023-04-05T13:03:59;6.70;;;4.75;;
30966;SDS011;17649;51.836;8.330;2023-04-05T13:07:06;10.07;;;4.85;;
30966;SDS011;17649;51.836;8.330;2023-04-05T13:10:06;6.88;;;4.45;;
30966;SDS011;17649;51.836;8.330;2023-04-05T13:13:07;6.20;;;3.70;;
30966;SDS011;17649;51.836;8.330;2023-04-05T13:16:08;8.93;;;5.20;;
30966;SDS011;17649;51.836;8.330;2023-04-05T13:19:09;8.05;;;4.97;;
30966;SDS011;17649;51.836;8.330;2023-04-05T13:22:09;6.55;;;4.95;;
30966;SDS011;17649;51.836;8.330;2023-04-05T13:25:10;9.07;;;5.03;;
30966;SDS011;17649;51.836;8.330;2023-04-05T13:28:11;8.50;;;4.95;;
30966;SDS011;17649;51.836;8.330;2023-04-05T13:31:11;10.50;;;4.63;;
30966;SDS011;17649;51.836;8.330;2023-04-05T13:34:12;7.82;;;5.32;;
30966;SDS011;17649;51.836;8.330;2023-04-05T13:37:12;7.97;;;3.95;;
30966;SDS011;17649;51.836;8.330;2023-04-05T13:40:13;12.10;;;8.30;;
30966;SDS011;17649;51.836;8.330;2023-04-05T13:43:15;5.88;;;4.75;;
30966;SDS011;17649;51.836;8.330;2023-04-05T13:46:16;9.50;;;5.10;;
30966;SDS011;17649;51.836;8.330;2023-04-05T13:49:16;6.53;;;4.47;;
30966;SDS011;17649;51.836;8.330;2023-04-05T13:52:16;6.45;;;5.03;;
30966;SDS011;17649;51.836;8.330;2023-04-05T13:55:17;5.85;;;4.80;;
30966;SDS011;17649;51.836;8.330;2023-04-05T13:58:17;8.10;;;5.75;;
30966;SDS011;17649;51.836;8.330;2023-04-05T14:01:18;6.18;;;5.07;;
30966;SDS011;17649;51.836;8.330;2023-04-05T14:04:18;7.82;;;5.55;;
30966;SDS011;17649;51.836;8.330;2023-04-05T14:07:19;7.05;;;5.70;;
30966;SDS011;17649;51.836;8.330;2023-04-05T14:10:20;6.80;;;5.20;;
30966;SDS011;17649;51.836;8.330;2023-04-05T14:13:21;7.85;;;4.65;;
30966;SDS011;17649;51.836;8.330;2023-04-05T14:16:21;8.23;;;5.13;;
30966;SDS011;17649;51.836;8.330;2023-04-05T14:19:22;6.80;;;4.75;;
30966;SDS011;17649;51.836;8.330;2023-04-05T14:22:22;5.38;;;4.82;;
30966;SDS011;17649;51.836;8.330;2023-04-05T14:25:23;4.45;;;4.00;;
30966;SDS011;17649;51.836;8.330;2023-04-05T14:28:23;9.18;;;6.20;;
30966;SDS011;17649;51.836;8.330;2023-04-05T14:31:23;4.47;;;4.07;;
30966;SDS011;17649;51.836;8.330;2023-04-05T14:34:24;7.43;;;4.45;;
30966;SDS011;17649;51.836;8.330;2023-04-05T14:37:24;5.90;;;4.15;;
30966;SDS011;17649;51.836;8.330;2023-04-05T14:40:25;13.23;;;4.95;;
30966;SDS011;17649;51.836;8.330;2023-04-05T14:43:25;5.32;;;4.68;;
30966;SDS011;17649;51.836;8.330;2023-04-05T14:46:26;5.78;;;3.90;;
30966;SDS011;17649;51.836;8.330;2023-04-05T14:49:26;8.90;;;5.13;;
30966;SDS011;17649;51.836;8.330;2023-04-05T14:52:27;7.57;;;4.53;;
30966;SDS011;17649;51.836;8.330;2023-04-05T14:55:27;7.25;;;4.00;;
30966;SDS011;17649;51.836;8.330;2023-04-05T14:58:28;8.25;;;4.90;;
30966;SDS011;17649;51.836;8.330;2023-04-05T15:01:28;8.73;;;5.65;;
30966;SDS011;17649;51.836;8.330;2023-04-05T15:04:29;8.38;;;4.78;;
30966;SDS011;17649;51.836;8.330;2023-04-05T15:07:30;8.38;;;5.07;;
30966;SDS011;17649;51.836;8.330;2023-04-05T15:10:30;8.70;;;5.50;;
30966;SDS011;17649;51.836;8.330;2023-04-05T15:13:31;7.47;;;5.80;;
30966;SDS011;17649;51.836;8.330;2023-04-05T15:16:34;5.70;;;5.10;;
30966;SDS011;17649;51.836;8.330;2023-04-05T15:19:35;7.53;;;4.85;;
30966;SDS011;17649;51.836;8.330;2023-04-05T15:22:35;6.63;;;4.57;;
30966;SDS011;17649;51.836;8.330;2023-04-05T15:25:39;6.32;;;4.35;;
30966;SDS011;17649;51.836;8.330;2023-04-05T15:28:40;10.18;;;5.57;;
30966;SDS011;17649;51.836;8.330;2023-04-05T15:31:40;6.25;;;5.10;;
30966;SDS011;17649;51.836;8.330;2023-04-05T15:34:41;7.28;;;5.22;;
30966;SDS011;17649;51.836;8.330;2023-04-05T15:37:42;5.95;;;4.90;;
30966;SDS011;17649;51.836;8.330;2023-04-05T15:40:45;8.57;;;4.95;;
30966;SDS011;17649;51.836;8.330;2023-04-05T15:43:46;6.38;;;4.50;;
30966;SDS011;17649;51.836;8.330;2023-04-05T15:46:46;7.03;;;4.95;;
30966;SDS011;17649;51.836;8.330;2023-04-05T15:49:47;7.93;;;5.53;;
30966;SDS011;17649;51.836;8.330;2023-04-05T15:52:48;8.40;;;4.63;;
30966;SDS011;17649;51.836;8.330;2023-04-05T15:55:48;7.05;;;5.15;;
30966;SDS011;17649;51.836;8.330;2023-04-05T15:58:49;7.07;;;4.70;;
30966;SDS011;17649;51.836;8.330;2023-04-05T16:01:49;6.57;;;4.90;;
30966;SDS011;17649;51.836;8.330;2023-04-05T16:04:50;9.60;;;5.30;;
30966;SDS011;17649;51.836;8.330;2023-04-05T16:07:50;10.60;;;5.97;;
30966;SDS011;17649;51.836;8.330;2023-04-05T16:10:52;12.23;;;6.77;;
30966;SDS011;17649;51.836;8.330;2023-04-05T16:13:52;7.20;;;4.15;;
30966;SDS011;17649;51.836;8.330;2023-04-05T16:16:53;6.60;;;4.40;;
30966;SDS011;17649;51.836;8.330;2023-04-05T16:19:53;6.05;;;4.15;;
30966;SDS011;17649;51.836;8.330;2023-04-05T16:22:54;5.65;;;3.55;;
30966;SDS011;17649;51.836;8.330;2023-04-05T16:25:54;7.60;;;3.58;;
30966;SDS011;17649;51.836;8.330;2023-04-05T16:28:55;5.60;;;3.30;;
30966;SDS011;17649;51.836;8.330;2023-04-05T16:31:56;5.40;;;3.78;;
30966;SDS011;17649;51.836;8.330;2023-04-05T16:34:56;7.88;;;5.57;;
30966;SDS011;17649;51.836;8.330;2023-04-05T16:37:56;7.03;;;5.10;;
30966;SDS011;17649;51.836;8.330;2023-04-05T16:40:57;4.47;;;3.65;;
30966;SDS011;17649;51.836;8.330;2023-04-05T16:43:58;5.28;;;3.47;;
30966;SDS011;17649;51.836;8.330;2023-04-05T16:46:58;10.52;;;4.72;;
30966;SDS011;17649;51.836;8.330;2023-04-05T16:49:59;5.18;;;3.45;;
30966;SDS011;17649;51.836;8.330;2023-04-05T16:52:59;5.93;;;3.80;;
30966;SDS011;17649;51.836;8.330;2023-04-05T16:56:01;5.32;;;3.67;;
30966;SDS011;17649;51.836;8.330;2023-04-05T16:59:02;6.10;;;4.15;;
30966;SDS011;17649;51.836;8.330;2023-04-05T17:02:02;6.47;;;3.90;;
30966;SDS011;17649;51.836;8.330;2023-04-05T17:05:03;7.03;;;3.72;;
30966;SDS011;17649;51.836;8.330;2023-04-05T17:08:04;6.20;;;3.10;;
30966;SDS011;17649;51.836;8.330;2023-04-05T17:11:04;7.53;;;3.88;;
30966;SDS011;17649;51.836;8.330;2023-04-05T17:14:05;4.95;;;3.83;;
30966;SDS011;17649;51.836;8.330;2023-04-05T17:17:06;5.97;;;4.35;;
30966;SDS011;17649;51.836;8.330;2023-04-05T17:20:07;7.07;;;4.05;;
30966;SDS011;17649;51.836;8.330;2023-04-05T17:23:08;5.13;;;3.80;;
30966;SDS011;17649;51.836;8.330;2023-04-05T17:26:08;9.38;;;4.55;;
30966;SDS011;17649;51.836;8.330;2023-04-05T17:29:09;6.43;;;4.32;;
30966;SDS011;17649;51.836;8.330;2023-04-05T17:32:11;5.63;;;4.40;;
30966;SDS011;17649;51.836;8.330;2023-04-05T17:35:11;7.78;;;4.43;;
30966;SDS011;17649;51.836;8.330;2023-04-05T17:38:12;5.95;;;4.18;;
30966;SDS011;17649;51.836;8.330;2023-04-05T17:41:12;6.00;;;3.95;;
30966;SDS011;17649;51.836;8.330;2023-04-05T17:44:13;6.40;;;4.60;;
30966;SDS011;17649;51.836;8.330;2023-04-05T17:47:13;12.80;;;5.93;;
30966;SDS011;17649;51.836;8.330;2023-04-05T17:50:14;49.97;;;20.67;;
30966;SDS011;17649;51.836;8.330;2023-04-05T17:53:15;44.75;;;16.75;;
30966;SDS011;17649;51.836;8.330;2023-04-05T17:56:15;27.13;;;12.00;;
30966;SDS011;17649;51.836;8.330;2023-04-05T17:59:15;18.17;;;8.88;;
30966;SDS011;17649;51.836;8.330;2023-04-05T18:02:16;12.77;;;6.97;;
30966;SDS011;17649;51.836;8.330;2023-04-05T18:05:16;16.50;;;7.40;;
30966;SDS011;17649;51.836;8.330;2023-04-05T18:08:17;10.38;;;5.95;;
30966;SDS011;17649;51.836;8.330;2023-04-05T18:11:17;9.52;;;5.60;;
30966;SDS011;17649;51.836;8.330;2023-04-05T18:14:18;12.93;;;5.72;;
30966;SDS011;17649;51.836;8.330;2023-04-05T18:17:18;9.57;;;5.18;;
30966;SDS011;17649;51.836;8.330;2023-04-05T18:20:19;7.47;;;5.18;;
30966;SDS011;17649;51.836;8.330;2023-04-05T18:23:20;10.82;;;6.00;;
30966;SDS011;17649;51.836;8.330;2023-04-05T18:26:21;13.23;;;5.95;;
30966;SDS011;17649;51.836;8.330;2023-04-05T18:29:22;14.00;;;6.50;;
30966;SDS011;17649;51.836;8.330;2023-04-05T18:32:27;12.98;;;6.82;;
30966;SDS011;17649;51.836;8.330;2023-04-05T18:35:27;11.02;;;6.85;;
30966;SDS011;17649;51.836;8.330;2023-04-05T18:38:27;12.07;;;7.43;;
30966;SDS011;17649;51.836;8.330;2023-04-05T18:41:28;10.60;;;6.63;;
30966;SDS011;17649;51.836;8.330;2023-04-05T18:44:29;15.35;;;8.27;;
30966;SDS011;17649;51.836;8.330;2023-04-05T18:47:29;16.40;;;8.90;;
30966;SDS011;17649;51.836;8.330;2023-04-05T18:50:29;15.65;;;8.25;;
30966;SDS011;17649;51.836;8.330;2023-04-05T18:53:30;13.13;;;7.97;;
30966;SDS011;17649;51.836;8.330;2023-04-05T18:56:30;18.90;;;8.90;;
30966;SDS011;17649;51.836;8.330;2023-04-05T18:59:30;13.63;;;7.88;;
30966;SDS011;17649;51.836;8.330;2023-04-05T19:02:31;18.50;;;8.52;;
30966;SDS011;17649;51.836;8.330;2023-04-05T19:05:31;14.82;;;6.72;;
30966;SDS011;17649;51.836;8.330;2023-04-05T19:08:32;17.13;;;6.72;;
30966;SDS011;17649;51.836;8.330;2023-04-05T19:11:32;15.18;;;8.23;;
30966;SDS011;17649;51.836;8.330;2023-04-05T19:14:33;14.20;;;6.68;;
30966;SDS011;17649;51.836;8.330;2023-04-05T19:17:33;16.58;;;7.88;;
30966;SDS011;17649;51.836;8.330;2023-04-05T19:20:34;9.02;;;6.35;;
30966;SDS011;17649;51.836;8.330;2023-04-05T19:23:34;17.42;;;8.80;;
30966;SDS011;17649;51.836;8.330;2023-04-05T19:26:35;15.30;;;8.93;;